Time;durP1;ratioP1;P1;durP2;ratioP2;P2;SDS_P1;SDS_P2;PMS_P1;PMS_P2;Temp;Humidity;BMP_temperature;BMP_pressure;BME280_temperature;BME280_humidity;BME280_pressure;Samples;Min_cycle;Max_cycle;Signal;HPM_P1;HPM_P2
2022/01/21 00:00:16;;;;;;;3.60;2.20;;;;;;;3.75;60.81;102465.97;674769;29;1363;-91
2022/01/21 00:00:37;;;;;;;2.83;2.00;;;;;;;3.74;61.17;102470.22;678811;29;2632;-91
2022/01/21 00:00:58;;;;;;;5.40;2.20;;;;;;;3.83;60.82;102476.19;681893;28;1981;-90
2022/01/21 00:01:20;;;;;;;6.57;1.90;;;;;;;3.76;61.01;102473.88;674314;29;2273;-91
2022/01/21 00:01:41;;;;;;;8.63;2.20;;;;;;;3.82;61.00;102476.94;679633;29;1283;-91
2022/01/21 00:02:02;;;;;;;8.90;2.45;;;;;;;3.78;60.78;102477.47;679640;29;1171;-92
2022/01/21 00:02:24;;;;;;;7.63;2.53;;;;;;;3.73;60.73;102473.59;680013;29;1743;-91
2022/01/21 00:02:45;;;;;;;3.80;2.35;;;;;;;3.83;60.46;102476.19;679967;29;1542;-91
2022/01/21 00:03:06;;;;;;;7.57;2.35;;;;;;;3.85;60.49;102473.69;684723;28;1393;-91
2022/01/21 00:03:27;;;;;;;8.80;2.30;;;;;;;3.85;60.28;102484.03;679653;29;1459;-92
2022/01/21 00:03:48;;;;;;;8.10;2.20;;;;;;;3.85;60.46;102484.03;677126;29;1290;-90
2022/01/21 00:04:10;;;;;;;4.85;2.05;;;;;;;3.61;60.58;102473.47;680074;29;1262;-91
2022/01/21 00:04:31;;;;;;;4.80;1.90;;;;;;;3.62;60.77;102482.13;682067;29;1939;-90
2022/01/21 00:04:51;;;;;;;5.68;1.85;;;;;;;3.67;60.86;102478.22;685092;28;1277;-92
2022/01/21 00:05:12;;;;;;;6.63;2.00;;;;;;;3.61;60.54;102477.75;685175;28;1497;-91
2022/01/21 00:05:33;;;;;;;6.35;2.08;;;;;;;3.72;60.74;102479.53;682956;28;1170;-90
2022/01/21 00:05:53;;;;;;;8.25;2.33;;;;;;;3.75;60.66;102482.38;683495;28;1184;-92
2022/01/21 00:06:14;;;;;;;8.60;2.28;;;;;;;3.74;60.52;102470.22;672247;29;1227;-91
2022/01/21 00:06:34;;;;;;;7.95;2.15;;;;;;;3.79;60.27;102476.69;677445;29;1282;-91
2022/01/21 00:06:55;;;;;;;6.50;2.30;;;;;;;3.84;60.38;102477.06;674021;29;1725;-92
2022/01/21 00:07:16;;;;;;;7.82;2.53;;;;;;;3.84;60.33;102477.06;674889;29;1322;-92
2022/01/21 00:07:36;;;;;;;10.52;2.90;;;;;;;3.82;59.91;102484.69;678728;29;1127;-92
2022/01/21 00:07:57;;;;;;;10.73;3.20;;;;;;;3.86;59.95;102487.53;678646;29;1309;-92
2022/01/21 00:08:17;;;;;;;8.88;3.08;;;;;;;3.83;60.03;102491.69;677367;29;1297;-91
2022/01/21 00:08:40;;;;;;;7.90;2.78;;;;;;;3.78;60.21;102484.28;674820;29;1280;-91
2022/01/21 00:09:02;;;;;;;6.75;2.10;;;;;;;3.73;60.34;102483.91;676310;29;1522;-91
2022/01/21 00:09:23;;;;;;;5.57;1.95;;;;;;;3.65;60.28;102484.94;672086;29;1255;-92
2022/01/21 00:09:46;;;;;;;4.88;1.83;;;;;;;3.61;60.75;102488.06;676825;29;1182;-89
2022/01/21 00:10:08;;;;;;;6.28;2.33;;;;;;;3.64;60.28;102483.16;682634;28;1277;-91
2022/01/21 00:10:28;;;;;;;7.47;2.30;;;;;;;3.75;60.31;102495.31;680017;29;1375;-92
2022/01/21 00:10:51;;;;;;;7.25;2.20;;;;;;;3.74;60.10;102493.47;681094;29;1036;-91
2022/01/21 00:11:13;;;;;;;5.97;2.10;;;;;;;3.78;59.91;102492.03;677450;29;1005;-91
2022/01/21 00:11:35;;;;;;;5.45;2.00;;;;;;;3.68;59.96;102487.81;682848;28;816;-91
2022/01/21 00:11:56;;;;;;;6.35;2.00;;;;;;;3.70;60.25;102496.59;679902;29;1287;-91
2022/01/21 00:12:16;;;;;;;6.78;2.15;;;;;;;3.62;60.29;102495.03;677339;29;1303;-91
2022/01/21 00:12:37;;;;;;;5.43;2.22;;;;;;;3.50;60.34;102500.94;680225;29;1203;-91
2022/01/21 00:12:58;;;;;;;5.00;2.30;;;;;;;3.51;60.57;102501.88;684171;28;1293;-92
2022/01/21 00:13:36;;;;;;;7.00;2.30;;;;;;;3.63;60.40;102522.66;682518;29;1408;-91
2022/01/21 00:14:00;;;;;;;9.05;2.40;;;;;;;3.67;60.19;102498.88;677398;29;1204;-90
2022/01/21 00:14:20;;;;;;;8.30;2.50;;;;;;;3.58;59.80;102503.28;679953;29;1085;-91
2022/01/21 00:14:43;;;;;;;8.20;2.50;;;;;;;3.58;59.91;102513.59;681172;28;1398;-91
2022/01/21 00:15:06;;;;;;;5.35;2.20;;;;;;;3.43;60.27;102508.94;682196;29;1514;-91
2022/01/21 00:15:27;;;;;;;5.43;1.90;;;;;;;3.37;60.16;102508.44;682774;29;1636;-91
2022/01/21 00:15:48;;;;;;;6.30;1.90;;;;;;;3.27;60.48;102499.00;677340;29;1622;-91
2022/01/21 00:16:21;;;;;;;7.38;2.08;;;;;;;3.43;60.42;102501.19;674829;29;1208;-92
2022/01/21 00:16:41;;;;;;;7.75;2.20;;;;;;;3.35;60.70;102500.56;682778;29;1338;-91
2022/01/21 00:17:02;;;;;;;8.77;2.30;;;;;;;3.20;60.95;102496.66;682319;29;1282;-91
2022/01/21 00:17:23;;;;;;;10.30;2.40;;;;;;;3.10;60.95;102501.03;685476;28;812;-91
2022/01/21 00:17:44;;;;;;;10.30;2.30;;;;;;;3.12;61.56;102503.75;687970;28;1285;-90
2022/01/21 00:18:05;;;;;;;8.80;2.20;;;;;;;3.09;61.50;102498.31;682583;29;1245;-91
2022/01/21 00:18:25;;;;;;;6.10;2.10;;;;;;;3.16;61.61;102508.41;679939;29;1327;-92
2022/01/21 00:19:03;;;;;;;4.20;1.70;;;;;;;3.04;61.73;102505.66;680010;29;1313;-91
2022/01/21 00:19:26;;;;;;;7.45;1.98;;;;;;;3.03;61.59;102510.69;682545;29;1277;-91
2022/01/21 00:19:49;;;;;;;9.85;2.40;;;;;;;2.99;62.09;102501.75;676860;29;1340;-91
2022/01/21 00:30:15;;;;;;;6.50;2.50;;;;;;;3.38;62.10;102512.84;679759;29;985;-90
2022/01/21 00:30:36;;;;;;;4.55;2.00;;;;;;;3.27;61.97;102505.03;679002;29;941;-90
2022/01/21 00:30:57;;;;;;;5.72;2.08;;;;;;;3.35;61.89;102499.66;680155;29;1439;-90
2022/01/21 00:31:17;;;;;;;7.75;2.40;;;;;;;3.46;61.93;102509.22;682710;29;1246;-90
2022/01/21 00:31:38;;;;;;;8.88;2.38;;;;;;;3.45;61.52;102510.00;680208;29;1280;-89
2022/01/21 00:31:59;;;;;;;6.60;2.03;;;;;;;3.38;61.85;102494.75;680036;29;1271;-90
2022/01/21 00:32:19;;;;;;;8.90;2.10;;;;;;;3.44;61.45;102497.88;685404;28;1218;-91
2022/01/21 00:32:43;;;;;;;8.90;2.15;;;;;;;3.42;61.84;102505.47;680116;29;1355;-90
2022/01/21 00:33:04;;;;;;;10.10;2.42;;;;;;;3.41;61.81;102508.84;679404;29;1269;-90
2022/01/21 00:33:25;;;;;;;9.43;2.50;;;;;;;3.41;61.85;102514.00;677560;29;1428;-91
2022/01/21 00:33:46;;;;;;;10.73;2.85;;;;;;;3.49;61.96;102524.97;679961;29;1246;-89
2022/01/21 00:34:06;;;;;;;9.07;2.58;;;;;;;3.52;61.55;102517.50;682707;28;1312;-90
2022/01/21 00:34:27;;;;;;;9.17;2.47;;;;;;;3.49;61.71;102521.50;680047;29;1201;-90
2022/01/21 00:34:47;;;;;;;7.88;2.20;;;;;;;3.60;61.68;102537.91;677395;29;1180;-90
2022/01/21 00:35:08;;;;;;;7.63;2.33;;;;;;;3.61;61.22;102534.53;677274;29;1459;-90
2022/01/21 00:35:29;;;;;;;7.57;2.37;;;;;;;3.50;60.99;102516.44;680122;29;1200;-90
2022/01/21 00:35:49;;;;;;;8.13;2.65;;;;;;;3.53;61.40;102529.63;674884;29;1176;-89
2022/01/21 00:36:10;;;;;;;6.63;2.47;;;;;;;3.43;61.56;102503.78;677685;29;1071;-90
2022/01/21 00:36:32;;;;;;;5.40;2.50;;;;;;;3.51;61.48;102527.69;683353;29;1438;-90
2022/01/21 00:36:53;;;;;;;6.85;2.50;;;;;;;3.58;61.67;102530.03;679456;29;1289;-90
2022/01/21 00:37:14;;;;;;;8.85;2.63;;;;;;;3.55;61.59;102519.41;686809;28;1187;-90
2022/01/21 00:37:36;;;;;;;10.15;2.70;;;;;;;3.50;61.37;102534.50;685493;28;875;-89
2022/01/21 00:37:56;;;;;;;6.03;2.15;;;;;;;3.44;61.74;102515.03;681144;29;1076;-90
2022/01/21 00:38:17;;;;;;;5.20;2.10;;;;;;;3.46;61.74;102516.97;680046;29;1260;-92
2022/01/21 00:38:40;;;;;;;5.35;2.25;;;;;;;3.38;61.70;102523.16;677371;29;1316;-91
2022/01/21 00:39:02;;;;;;;7.00;2.55;;;;;;;3.45;61.79;102512.59;676513;29;1098;-90
2022/01/21 00:39:26;;;;;;;9.32;2.60;;;;;;;3.56;61.61;102527.28;679838;29;1718;-91
2022/01/21 00:39:53;;;;;;;9.60;2.50;;;;;;;3.56;61.44;102521.25;679692;29;1233;-90
2022/01/21 00:40:19;;;;;;;7.45;2.10;;;;;;;3.67;61.69;102519.53;682527;29;1362;-89
2022/01/21 00:40:40;;;;;;;9.25;2.20;;;;;;;3.66;61.03;102516.06;680185;29;902;-90
2022/01/21 00:41:04;;;;;;;7.38;2.28;;;;;;;3.70;61.36;102514.66;686979;28;1976;-90
2022/01/21 00:41:29;;;;;;;8.88;2.28;;;;;;;3.68;60.89;102511.06;682736;28;1274;-89
2022/01/21 00:42:08;;;;;;;9.32;2.30;;;;;;;3.72;61.00;102518.28;679913;29;1147;-91
2022/01/21 00:42:48;;;;;;;6.40;2.28;;;;;;;3.65;61.12;102522.03;682699;29;1345;-91
2022/01/21 00:43:18;;;;;;;7.55;2.38;;;;;;;3.66;61.08;102518.66;682695;29;1153;-91
2022/01/21 00:43:44;;;;;;;4.72;2.25;;;;;;;3.70;61.24;102525.88;677340;29;1252;-90
2022/01/21 00:44:05;;;;;;;7.80;2.40;;;;;;;3.69;61.09;102528.34;684489;28;1204;-90
2022/01/21 00:44:26;;;;;;;8.35;2.28;;;;;;;3.66;61.44;102529.00;685276;28;1353;-91
2022/01/21 00:44:48;;;;;;;8.48;2.17;;;;;;;3.68;61.18;102526.53;685228;28;1314;-90
2022/01/21 00:45:15;;;;;;;8.35;2.30;;;;;;;3.80;61.34;102532.72;677206;29;1283;-91
2022/01/21 00:45:36;;;;;;;10.55;2.40;;;;;;;3.71;61.27;102516.47;680029;29;1462;-90
2022/01/21 00:45:58;;;;;;;9.68;2.20;;;;;;;3.79;61.09;102522.25;680980;29;1407;-90
2022/01/21 00:46:19;;;;;;;6.90;1.95;;;;;;;3.80;61.30;102517.22;682506;28;1332;-91
2022/01/21 00:46:40;;;;;;;5.68;2.30;;;;;;;3.93;61.18;102528.59;680120;29;1488;-89
2022/01/21 00:47:02;;;;;;;4.63;2.20;;;;;;;3.93;60.66;102523.44;679100;29;1203;-90
2022/01/21 00:47:22;;;;;;;5.32;2.22;;;;;;;3.97;60.62;102528.06;679794;29;1257;-90
2022/01/21 00:47:44;;;;;;;7.43;2.30;;;;;;;4.03;60.40;102531.16;680146;29;1169;-90
2022/01/21 00:48:05;;;;;;;7.80;2.50;;;;;;;4.05;60.52;102529.59;687438;28;1207;-90
2022/01/21 00:48:26;;;;;;;6.40;2.50;;;;;;;4.11;60.28;102535.28;685266;28;1138;-91
2022/01/21 00:48:47;;;;;;;5.40;2.47;;;;;;;4.08;60.31;102527.31;679331;29;1365;-90
2022/01/21 00:49:07;;;;;;;5.38;2.50;;;;;;;4.11;60.17;102530.13;677309;29;1339;-90
2022/01/21 00:49:28;;;;;;;5.13;2.17;;;;;;;4.09;60.02;102534.28;679855;29;803;-90
2022/01/21 00:49:48;;;;;;;5.72;2.00;;;;;;;4.06;59.87;102531.41;678465;29;1186;-90
2022/01/21 00:50:10;;;;;;;6.90;2.00;;;;;;;4.14;59.87;102538.91;674772;29;1302;-91
2022/01/21 00:50:31;;;;;;;7.65;2.10;;;;;;;4.09;59.86;102520.44;679865;29;1276;-90
2022/01/21 00:50:53;;;;;;;7.15;2.15;;;;;;;4.14;59.96;102525.97;679907;29;1266;-91
2022/01/21 00:51:15;;;;;;;6.75;2.22;;;;;;;4.13;59.88;102526.75;677341;29;1256;-90
2022/01/21 00:51:36;;;;;;;7.57;2.28;;;;;;;4.08;59.59;102524.72;677629;29;1193;-90
2022/01/21 00:51:57;;;;;;;7.15;2.38;;;;;;;4.13;59.86;102531.94;681820;29;1316;-91
2022/01/21 00:52:17;;;;;;;7.40;2.07;;;;;;;4.10;59.85;102530.91;679871;29;1237;-91
2022/01/21 00:52:38;;;;;;;8.32;2.08;;;;;;;4.00;59.75;102527.44;679934;29;1071;-91
2022/01/21 00:52:58;;;;;;;10.73;2.20;;;;;;;4.03;59.78;102526.00;687668;28;1130;-91
2022/01/21 00:53:19;;;;;;;11.13;2.23;;;;;;;4.05;59.77;102518.38;682512;29;1179;-91
2022/01/21 00:53:40;;;;;;;12.00;2.50;;;;;;;4.00;59.85;102520.59;677071;29;1467;-89
2022/01/21 00:54:00;;;;;;;10.27;2.50;;;;;;;3.93;59.93;102514.00;682312;29;1177;-90
2022/01/21 00:54:21;;;;;;;9.90;2.55;;;;;;;3.92;59.89;102519.06;679765;29;1109;-90
2022/01/21 00:54:43;;;;;;;6.68;2.20;;;;;;;3.95;60.24;102521.88;677353;29;812;-90
2022/01/21 00:55:06;;;;;;;6.90;2.00;;;;;;;3.93;59.79;102514.00;682479;29;1227;-90
2022/01/21 00:55:27;;;;;;;5.43;2.00;;;;;;;3.99;59.85;102517.88;679688;29;1385;-90
2022/01/21 00:55:48;;;;;;;7.13;2.10;;;;;;;3.91;60.11;102525.88;682548;29;1442;-91
2022/01/21 00:56:09;;;;;;;8.90;2.10;;;;;;;3.89;60.26;102527.44;685025;28;1204;-90
2022/01/21 00:56:29;;;;;;;9.45;2.22;;;;;;;3.85;60.14;102524.47;679800;29;1318;-90
2022/01/21 00:56:50;;;;;;;8.80;2.38;;;;;;;3.69;60.52;102512.84;677506;29;1485;-90
2022/01/21 00:57:11;;;;;;;7.15;2.30;;;;;;;3.76;60.77;102515.19;685320;28;1185;-90
2022/01/21 00:57:33;;;;;;;7.80;2.20;;;;;;;3.95;60.41;102533.13;685524;28;839;-91
2022/01/21 00:57:59;;;;;;;8.75;2.30;;;;;;;3.91;60.52;102515.56;681251;29;1241;-91
2022/01/21 00:58:21;;;;;;;9.48;2.60;;;;;;;3.81;60.80;102513.00;672165;29;1827;-91
2022/01/21 00:58:42;;;;;;;8.77;2.60;;;;;;;3.93;60.83;102529.50;682129;29;1273;-90
2022/01/21 00:59:02;;;;;;;7.23;2.50;;;;;;;3.87;60.79;102517.75;684853;28;1199;-90
2022/01/21 00:59:24;;;;;;;7.40;2.35;;;;;;;3.86;60.59;102516.84;683558;28;1292;-91
2022/01/21 00:59:44;;;;;;;6.60;2.00;;;;;;;3.83;60.61;102530.44;679591;28;1297;-90
2022/01/21 01:00:12;;;;;;;6.07;2.00;;;;;;;3.74;61.01;102511.53;676901;29;1331;-90
2022/01/21 01:00:33;;;;;;;7.80;2.25;;;;;;;3.85;60.67;102521.91;682170;29;1367;-90
2022/01/21 01:00:53;;;;;;;6.75;2.30;;;;;;;3.82;60.84;102514.78;673812;29;1287;-90
2022/01/21 01:01:14;;;;;;;7.95;2.80;;;;;;;3.99;60.75;102534.28;679732;29;1926;-91
2022/01/21 01:01:35;;;;;;;10.10;2.90;;;;;;;3.99;60.66;102523.03;677357;29;1293;-90
2022/01/21 01:02:29;;;;;;;9.85;2.80;;;;;;;4.03;60.36;102536.34;676665;29;1176;-90
2022/01/21 01:02:50;;;;;;;4.75;2.20;;;;;;;3.90;60.22;102525.75;679610;29;1710;-89
2022/01/21 01:03:13;;;;;;;4.38;2.30;;;;;;;3.97;60.39;102520.31;679889;29;1177;-89
2022/01/21 01:03:33;;;;;;;4.22;2.40;;;;;;;4.09;60.16;102526.53;677158;29;1368;-90
2022/01/21 01:03:54;;;;;;;5.93;2.17;;;;;;;4.04;60.02;102520.06;680738;29;1129;-91
2022/01/21 01:04:15;;;;;;;7.30;2.13;;;;;;;4.03;59.95;102528.59;679906;29;1145;-90
2022/01/21 01:04:35;;;;;;;7.55;2.17;;;;;;;4.07;59.95;102527.16;682607;29;1452;-91
2022/01/21 01:04:56;;;;;;;6.78;2.25;;;;;;;4.11;60.21;102522.38;682536;29;1102;-90
2022/01/21 01:05:17;;;;;;;5.07;2.30;;;;;;;4.14;59.90;102534.66;679496;29;1200;-90
2022/01/21 01:05:37;;;;;;;4.70;2.30;;;;;;;4.07;59.77;102528.06;680174;29;741;-91
2022/01/21 01:05:58;;;;;;;6.70;2.25;;;;;;;4.00;59.74;102520.59;679514;29;1178;-90
2022/01/21 01:06:19;;;;;;;9.60;2.20;;;;;;;4.09;59.97;102533.34;682611;28;1312;-90
2022/01/21 01:06:40;;;;;;;13.50;2.40;;;;;;;3.98;60.18;102527.28;679955;29;1298;-91
2022/01/21 01:07:01;;;;;;;11.07;2.22;;;;;;;3.97;60.16;102535.81;680959;29;1291;-90
2022/01/21 01:07:24;;;;;;;7.47;2.30;;;;;;;4.06;59.89;102540.88;682394;28;1339;-90
2022/01/21 01:07:45;;;;;;;8.43;2.80;;;;;;;4.01;60.04;102532.72;671764;29;1590;-89
2022/01/21 01:08:06;;;;;;;10.07;3.00;;;;;;;3.81;59.96;102534.53;684644;28;1326;-91
2022/01/21 01:08:27;;;;;;;8.45;2.72;;;;;;;3.81;60.35;102529.38;682293;29;2039;-91
2022/01/21 01:08:50;;;;;;;5.03;2.05;;;;;;;3.74;60.48;102519.28;677047;29;1409;-89
2022/01/21 01:09:11;;;;;;;5.98;2.40;;;;;;;3.82;60.74;102536.34;679982;29;1484;-90
2022/01/21 01:09:32;;;;;;;7.30;2.60;;;;;;;3.68;60.58;102523.97;679556;29;1849;-90
2022/01/21 01:09:55;;;;;;;7.20;2.70;;;;;;;3.64;60.84;102521.88;682399;29;1045;-90
2022/01/21 01:10:25;;;;;;;5.25;2.20;;;;;;;3.70;60.88;102525.00;674620;29;1315;-91
2022/01/21 01:11:14;;;;;;;7.80;2.30;;;;;;;3.81;60.72;102531.94;677080;29;1426;-90
2022/01/21 01:11:47;;;;;;;8.55;2.40;;;;;;;3.74;60.77;102521.88;677310;29;1119;-91
2022/01/21 01:12:19;;;;;;;9.75;2.40;;;;;;;3.84;60.64;102533.91;679800;29;969;-90
2022/01/21 01:19:56;;;;;;;10.30;2.55;;;;;;;3.78;60.17;102539.44;679249;29;1176;-90
2022/01/21 01:20:07;;;;;;;12.23;2.30;;;;;;;3.76;60.43;102540.09;680892;29;1279;-91
2022/01/21 01:20:27;;;;;;;11.15;2.03;;;;;;;3.79;60.75;102550.66;685239;28;1245;-90
2022/01/21 01:20:49;;;;;;;13.45;2.30;;;;;;;3.78;60.11;102548.88;687349;28;1190;-89
2022/01/21 01:21:10;;;;;;;10.10;2.30;;;;;;;3.70;60.54;102545.66;679675;29;1907;-90
2022/01/21 01:21:31;;;;;;;9.45;2.33;;;;;;;3.61;61.03;102524.22;682557;29;1209;-90
2022/01/21 01:21:55;;;;;;;9.40;2.58;;;;;;;3.63;60.76;102533.00;682316;28;1333;-89
2022/01/21 01:22:18;;;;;;;8.80;2.80;;;;;;;3.64;60.45;102530.53;682351;29;1167;-91
2022/01/21 01:23:19;;;;;;;8.70;2.67;;;;;;;3.63;60.84;102525.25;679552;29;1279;-90
2022/01/21 01:24:02;;;;;;;7.55;2.58;;;;;;;3.71;60.80;102552.63;674080;29;1874;-90
2022/01/21 01:27:37;;;;;;;10.68;2.60;;;;;;;3.60;61.07;102537.91;685150;28;1443;-91
2022/01/21 01:27:59;;;;;;;12.40;2.50;;;;;;;3.54;61.21;102523.69;679664;29;1345;-91
2022/01/21 01:28:19;;;;;;;10.18;2.05;;;;;;;3.54;61.50;102531.44;677016;29;1483;-90
2022/01/21 01:28:42;;;;;;;9.73;2.40;;;;;;;3.56;61.04;102532.47;677410;29;1324;-90
2022/01/21 01:29:02;;;;;;;8.20;2.45;;;;;;;3.75;60.89;102549.53;682507;29;1237;-90
2022/01/21 01:29:38;;;;;;;8.73;2.60;;;;;;;3.68;61.22;102536.88;682130;29;1373;-91
2022/01/21 01:30:00;;;;;;;8.63;2.88;;;;;;;3.65;61.25;102534.00;676677;29;1454;-90
2022/01/21 01:30:23;;;;;;;9.13;2.70;;;;;;;3.67;61.00;102533.38;679732;29;1110;-91
2022/01/21 01:30:44;;;;;;;9.60;2.65;;;;;;;3.65;60.98;102536.59;677156;29;1198;-91
2022/01/21 01:31:05;;;;;;;12.38;2.60;;;;;;;3.51;61.02;102538.00;685078;28;1288;-90
2022/01/21 01:31:25;;;;;;;13.20;2.80;;;;;;;3.56;61.35;102545.38;687947;28;1324;-90
2022/01/21 01:31:47;;;;;;;10.02;2.50;;;;;;;3.54;61.59;102549.50;682447;29;1295;-90
2022/01/21 01:32:08;;;;;;;7.97;2.13;;;;;;;3.56;61.55;102540.22;677058;29;1459;-91
2022/01/21 01:32:30;;;;;;;6.32;2.00;;;;;;;3.60;61.39;102532.75;679607;29;1192;-90
2022/01/21 01:32:55;;;;;;;5.47;2.17;;;;;;;3.68;61.29;102547.22;679935;29;1163;-90
2022/01/21 01:33:22;;;;;;;5.55;2.00;;;;;;;3.57;61.26;102538.53;677340;29;1427;-91
2022/01/21 01:33:43;;;;;;;10.48;2.35;;;;;;;3.56;61.18;102541.91;671866;29;1206;-91
2022/01/21 01:34:04;;;;;;;12.75;2.60;;;;;;;3.47;61.71;102534.25;679683;29;1308;-91
2022/01/21 01:34:25;;;;;;;12.68;2.72;;;;;;;3.46;61.40;102531.53;682579;28;1244;-90
2022/01/21 01:34:45;;;;;;;8.80;2.38;;;;;;;3.55;61.37;102538.41;674679;29;1238;-91
2022/01/21 01:35:08;;;;;;;8.27;2.20;;;;;;;3.47;61.29;102523.94;676180;29;1194;-91
2022/01/21 01:35:32;;;;;;;8.77;2.35;;;;;;;3.53;61.25;102534.78;674500;29;1149;-90
2022/01/21 01:35:52;;;;;;;11.68;2.65;;;;;;;3.59;61.11;102541.22;674516;29;1360;-90
2022/01/21 01:36:13;;;;;;;9.02;2.60;;;;;;;3.60;61.42;102535.31;672025;29;1346;-90
2022/01/21 01:36:34;;;;;;;7.40;2.40;;;;;;;3.66;60.89;102536.75;671571;29;1630;-89
2022/01/21 01:36:58;;;;;;;6.03;2.40;;;;;;;3.66;60.85;102538.41;682406;29;1361;-90
2022/01/21 01:39:15;;;;;;;8.90;2.50;;;;;;;3.50;60.75;102525.88;679604;29;1102;-90
2022/01/21 01:39:44;;;;;;;8.93;1.95;;;;;;;3.45;61.09;102519.41;682279;29;1099;-90
2022/01/21 01:40:21;;;;;;;11.10;2.30;;;;;;;3.60;60.99;102527.56;674608;29;1362;-90
2022/01/21 01:41:09;;;;;;;8.23;2.35;;;;;;;3.47;61.00;102511.03;682059;29;1968;-89
2022/01/21 01:41:48;;;;;;;13.43;2.50;;;;;;;3.46;60.89;102524.72;677145;29;1773;-90
2022/01/21 01:49:43;;;;;;;5.22;2.40;;;;;;;2.70;63.42;102539.69;679023;29;1281;-90
2022/01/21 01:50:05;;;;;;;6.78;2.40;;;;;;;2.73;63.03;102531.34;682283;29;1374;-90
2022/01/21 01:50:26;;;;;;;8.55;2.30;;;;;;;2.80;62.91;102532.78;679879;29;1261;-90
2022/01/21 01:50:48;;;;;;;7.85;2.10;;;;;;;2.87;63.10;102542.88;674689;29;1287;-90
2022/01/21 01:51:11;;;;;;;7.10;2.20;;;;;;;2.82;63.11;102528.69;677035;29;1515;-90
2022/01/21 01:51:32;;;;;;;7.75;2.40;;;;;;;2.77;63.03;102520.53;677568;29;1584;-90
2022/01/21 01:51:53;;;;;;;8.63;2.40;;;;;;;2.77;63.07;102517.03;677271;29;1339;-90
2022/01/21 01:52:17;;;;;;;9.73;2.30;;;;;;;2.83;63.27;102535.66;672129;29;1368;-90
2022/01/21 01:52:38;;;;;;;7.72;2.40;;;;;;;2.81;62.75;102526.88;677360;29;1432;-91
2022/01/21 01:52:58;;;;;;;6.68;2.60;;;;;;;2.77;62.87;102524.78;684870;28;1360;-91
2022/01/21 01:53:24;;;;;;;8.07;2.53;;;;;;;2.76;62.92;102526.47;677243;29;1189;-91
2022/01/21 01:53:47;;;;;;;7.72;2.30;;;;;;;2.91;62.72;102539.81;677373;29;1202;-90
2022/01/21 01:54:13;;;;;;;7.95;2.10;;;;;;;2.78;62.57;102517.19;685027;28;1105;-91
2022/01/21 01:54:37;;;;;;;6.43;2.47;;;;;;;2.84;62.31;102520.31;682462;29;1122;-91
2022/01/21 01:54:58;;;;;;;8.00;2.90;;;;;;;2.82;62.28;102520.94;679709;29;1280;-89
2022/01/21 01:55:20;;;;;;;10.93;3.10;;;;;;;2.76;62.29;102520.41;682564;29;1233;-90
2022/01/21 01:55:41;;;;;;;9.15;2.38;;;;;;;2.81;62.45;102529.44;680015;29;1402;-90
2022/01/21 01:56:05;;;;;;;9.05;2.10;;;;;;;2.77;62.65;102524.78;685079;28;1174;-90
2022/01/21 01:56:31;;;;;;;10.75;2.03;;;;;;;2.72;62.23;102512.41;677264;29;1361;-90
2022/01/21 01:56:55;;;;;;;14.73;2.67;;;;;;;2.81;62.37;102530.34;682005;29;1543;-91
2022/01/21 01:57:16;;;;;;;16.23;2.75;;;;;;;2.76;62.28;102520.41;682492;29;1257;-91
2022/01/21 01:57:36;;;;;;;15.55;3.13;;;;;;;2.84;62.34;102524.56;682385;29;1370;-91
2022/01/21 01:57:57;;;;;;;11.25;2.95;;;;;;;2.79;62.22;102515.50;679774;29;1324;-89
2022/01/21 01:58:17;;;;;;;11.03;3.30;;;;;;;2.76;62.41;102525.56;677281;29;1017;-90
2022/01/21 01:58:41;;;;;;;8.13;2.90;;;;;;;2.77;62.44;102517.97;679780;29;1254;-91
2022/01/21 01:59:02;;;;;;;9.02;3.20;;;;;;;2.73;62.70;102516.78;682320;29;1404;-90
2022/01/21 01:59:24;;;;;;;9.82;3.00;;;;;;;2.78;62.54;102527.50;677723;29;767;-90
2022/01/21 01:59:44;;;;;;;13.32;3.00;;;;;;;2.79;62.32;102520.66;679492;29;1266;-89
2022/01/21 02:00:06;;;;;;;11.45;2.75;;;;;;;2.85;62.28;102531.50;679464;29;1166;-90
2022/01/21 02:00:33;;;;;;;8.00;2.70;;;;;;;2.83;62.46;102538.22;682494;29;1288;-90
2022/01/21 02:00:56;;;;;;;7.38;2.55;;;;;;;2.66;62.77;102514.44;684984;28;1240;-90
2022/01/21 02:01:17;;;;;;;7.00;2.25;;;;;;;2.80;62.51;102527.63;679581;29;1978;-90
2022/01/21 02:01:38;;;;;;;11.40;2.63;;;;;;;2.85;61.98;102521.19;677205;29;1255;-90
2022/01/21 02:02:09;;;;;;;12.43;2.90;;;;;;;2.77;62.36;102517.97;683903;28;1172;-90
2022/01/21 02:02:30;;;;;;;14.88;2.78;;;;;;;2.80;62.68;102527.63;683214;28;1716;-90
2022/01/21 02:02:51;;;;;;;13.27;2.30;;;;;;;2.82;62.30;102526.09;677134;29;1279;-90
2022/01/21 02:03:14;;;;;;;11.35;2.35;;;;;;;2.83;62.62;102527.91;685206;28;1063;-90
2022/01/21 02:03:35;;;;;;;10.05;2.45;;;;;;;2.80;62.35;102512.16;687879;28;1245;-90
2022/01/21 02:03:56;;;;;;;9.02;2.47;;;;;;;2.79;62.41;102520.66;679758;29;1115;-90
2022/01/21 02:04:17;;;;;;;8.10;2.60;;;;;;;2.77;62.54;102517.03;684405;28;1161;-90
2022/01/21 02:04:39;;;;;;;6.88;2.70;;;;;;;2.78;62.48;102513.69;682698;29;761;-90
2022/01/21 02:04:59;;;;;;;6.55;2.70;;;;;;;2.74;62.73;102517.66;682471;29;1195;-90
2022/01/21 02:05:20;;;;;;;7.57;2.95;;;;;;;2.55;62.69;102520.28;677275;29;920;-88
2022/01/21 02:05:42;;;;;;;9.23;3.57;;;;;;;2.50;62.87;102516.41;677163;29;1194;-90
2022/01/21 02:06:04;;;;;;;9.45;3.35;;;;;;;2.60;63.19;102529.34;679733;29;1145;-89
2022/01/21 02:06:25;;;;;;;11.35;3.10;;;;;;;2.65;62.99;102524.59;684904;28;1784;-90
2022/01/21 02:06:45;;;;;;;14.47;2.50;;;;;;;2.54;63.12;102519.41;682284;29;1153;-89
2022/01/21 02:07:06;;;;;;;14.93;2.67;;;;;;;2.51;63.34;102513.06;679535;29;1215;-90
2022/01/21 02:07:27;;;;;;;14.43;2.70;;;;;;;2.52;62.68;102515.78;679876;29;1214;-91
2022/01/21 02:07:48;;;;;;;12.00;2.70;;;;;;;2.60;62.93;102516.47;679719;29;1403;-89
2022/01/21 02:08:10;;;;;;;11.63;2.77;;;;;;;2.58;63.20;102520.59;685219;28;1158;-90
2022/01/21 02:08:32;;;;;;;8.85;2.63;;;;;;;2.61;63.44;102517.38;685245;28;1397;-89
2022/01/21 02:08:52;;;;;;;7.72;2.50;;;;;;;2.56;63.10;102514.34;684732;28;1320;-90
2022/01/21 02:09:13;;;;;;;8.93;2.30;;;;;;;2.57;63.09;102523.94;682464;29;1307;-90
2022/01/21 02:09:34;;;;;;;12.07;2.40;;;;;;;2.53;63.39;102527.91;671734;29;1328;-90
2022/01/21 02:09:55;;;;;;;8.68;2.25;;;;;;;2.59;63.37;102527.53;679610;29;1151;-90
2022/01/21 02:10:15;;;;;;;9.97;2.60;;;;;;;2.60;63.44;102526.78;677092;29;1272;-90
2022/01/21 02:10:37;;;;;;;9.00;2.67;;;;;;;2.54;63.31;102509.09;680049;29;864;-90
2022/01/21 02:10:58;;;;;;;8.60;2.70;;;;;;;2.60;63.19;102506.16;675742;29;1103;-90
2022/01/21 02:11:21;;;;;;;7.50;2.67;;;;;;;2.58;63.03;102511.16;684518;28;1745;-90
2022/01/21 02:11:42;;;;;;;8.68;2.53;;;;;;;2.53;63.23;102506.38;677301;29;1470;-90
2022/01/21 02:12:04;;;;;;;8.07;2.50;;;;;;;2.59;63.14;102514.66;677028;29;1172;-90
2022/01/21 02:12:25;;;;;;;5.53;2.28;;;;;;;2.60;63.04;102508.72;679508;29;1549;-90
2022/01/21 02:12:46;;;;;;;5.63;2.63;;;;;;;2.60;63.05;102498.41;679803;29;1159;-90
2022/01/21 02:13:19;;;;;;;7.77;2.63;;;;;;;2.68;63.34;102512.88;679976;29;1155;-90
2022/01/21 02:13:47;;;;;;;10.70;2.80;;;;;;;2.68;62.87;102520.63;677169;29;1263;-90
2022/01/21 02:14:11;;;;;;;13.23;2.92;;;;;;;2.73;62.98;102527.09;679525;29;1245;-90
2022/01/21 02:14:36;;;;;;;13.00;2.83;;;;;;;2.65;63.23;102517.78;679938;29;1298;-90
2022/01/21 02:14:59;;;;;;;7.97;2.42;;;;;;;2.67;63.23;102516.25;672935;29;1396;-90
2022/01/21 02:15:23;;;;;;;6.68;2.40;;;;;;;2.73;63.26;102521.94;679839;29;1277;-90
2022/01/21 02:15:56;;;;;;;6.80;2.42;;;;;;;2.70;63.21;102521.66;679772;29;1216;-90
2022/01/21 02:21:53;;;;;;;13.25;3.40;;;;;;;2.83;63.48;102523.63;678776;29;1054;-91
2022/01/21 02:22:15;;;;;;;12.50;3.40;;;;;;;2.86;63.05;102525.59;682409;29;1141;-91
2022/01/21 02:22:40;;;;;;;8.73;2.60;;;;;;;2.90;63.33;102537.06;679904;28;1423;-90
2022/01/21 02:23:01;;;;;;;9.18;2.58;;;;;;;2.90;63.13;102535.41;682504;29;1160;-90
2022/01/21 02:23:21;;;;;;;5.93;2.47;;;;;;;2.93;63.21;102538.25;677391;29;843;-90
2022/01/21 02:23:42;;;;;;;6.95;2.40;;;;;;;2.89;62.83;102528.44;677192;29;1215;-90
2022/01/21 02:24:06;;;;;;;10.50;2.70;;;;;;;2.88;62.71;102521.50;676994;28;1173;-91
2022/01/21 02:24:35;;;;;;;14.90;2.75;;;;;;;2.77;62.76;102527.34;679898;29;1501;-90
2022/01/21 02:24:59;;;;;;;13.23;3.03;;;;;;;2.79;63.10;102526.72;683290;28;1345;-90
2022/01/21 02:25:20;;;;;;;17.52;3.80;;;;;;;2.87;62.96;102540.28;683086;28;1112;-90
2022/01/21 02:25:42;;;;;;;16.27;3.65;;;;;;;2.82;63.15;102533.84;675108;29;1254;-89